UPSVAC Airport Information Service

Tokyo Narita International Airport

ICAO: RJAA Country: Japan
Latitude: 35.7647 Longitude: 140.386
Latest Arrival : UPS1232 (RPLC-RJAA) Latest Departure : UPS1223 (RJAA-ZSPD)


WX CaptureLIVE
Data provided by noaa.gov | Fetched at 22:48:27

METAR : RJAA 112230Z 06011KT 9999 FEW030 BKN/// 17/09 Q1021 BECMG 08010KT RMK 1CU030 A3018

TAF : RJAA 112130Z 1121/1300 08010KT 9999 FEW030 BECMG 1209/1212 04004KT BECMG 1221/1300 08008KT


Runway Data for RJAA
Data provided by openaviationdata.com

Runway ID Mag Var Hdg Length Elevation Surface ILS Freq ILS Id ILS Slope
16L -7 156° 8202 ft 135 ft Asphalt 110.7 ITM 3
16R -7 156° 13132 ft 135 ft Asphalt 111.5 IKF 3
34L -7 336° 13132 ft 135 ft Asphalt 111.9 IYQ 3
34R -7 336° 8202 ft 135 ft Asphalt 110.9 ITJ 3

Tokyo Narita International Airport, Japan
Use only for reference purposes



Not for navigational purposes.